ADDS METAR Data INFO
IDs: Format: Raw Decoded Include TAF

Data at: 0339 UTC 19 Jul 2018

KTOC 190315Z AUTO 00000KT 10SM BKN050 OVC080 27/24 A2999 RMK AO2 T02650239
KTOC 190255Z AUTO 00000KT 10SM BKN050 BKN060 27/24 A2999 RMK AO2 T02660238
KTOC 190235Z AUTO 00000KT 10SM SCT047 SCT060 SCT095 27/24 A2998 RMK AO2 T02650238
KTOC 190215Z AUTO 00000KT 10SM SCT044 SCT050 BKN095 26/24 A2998 RMK AO2 T02630236
KTOC 190155Z AUTO 00000KT 10SM SCT044 BKN050 BKN080 26/24 A2997 RMK AO2 T02620240
KTOC 190135Z AUTO 00000KT 10SM SCT050 SCT055 26/24 A2996 RMK AO2 T02610237
KTOC 190115Z AUTO 00000KT 10SM CLR 26/24 A2995 RMK AO2 T02610236
KTOC 190055Z AUTO 00000KT 10SM SCT070 27/23 A2995 RMK AO2 T02670234
KTOC 190035Z AUTO 00000KT 10SM SCT070 27/23 A2995 RMK AO2 T02710232
KTOC 190015Z AUTO 00000KT 10SM CLR 27/23 A2995 RMK AO2 T02730231
KTOC 182355Z AUTO 00000KT 10SM CLR 28/23 A2994 RMK AO2 T02760227 10335 20273
KTOC 182335Z AUTO 00000KT 10SM CLR 28/23 A2994 RMK AO2 T02780232
KTOC 182315Z AUTO 00000KT 10SM SCT120 28/23 A2993 RMK AO2 T02830226
KTOC 182255Z AUTO 00000KT 10SM BKN120 28/23 A2993 RMK AO2 T02780228
KTOC 182235Z AUTO 00000KT 10SM SCT045 SCT055 OVC110 28/23 A2993 RMK AO2 T02790233
KTOC 182215Z AUTO 00000KT 10SM -RA SCT018 BKN060 OVC110 28/24 A2993 RMK AO2 T02810236
KTOC 182155Z AUTO 30004KT 10SM -RA SCT060 SCT075 BKN100 31/24 A2993 RMK AO2 T03050241
KTOC 182135Z AUTO 00000KT 10SM BKN100 BKN120 32/23 A2994 RMK AO2 T03170234
KTOC 182115Z AUTO 17003KT 10SM CLR 33/23 A2993 RMK AO2 T03260229
KTOC 182055Z AUTO 16003KT 10SM CLR 33/23 A2994 RMK AO2 T03290227
KTOC 182035Z AUTO 00000KT 10SM CLR 33/23 A2994 RMK AO2 T03300228
KTOC 182015Z AUTO 17004KT 10SM CLR 32/23 A2995 RMK AO2 T03240228
KTOC 181955Z AUTO 00000KT 10SM CLR 33/23 A2995 RMK AO2 T03260228
KTOC 181935Z AUTO 00000KT 10SM CLR 33/23 A2996 RMK AO2 T03290226
KTOC 181915Z AUTO 20004KT 10SM SCT034 SCT040 SCT050 33/23 A2996 RMK AO2 T03310231
KTOC 181855Z AUTO 12005KT 10SM CLR 33/24 A2997 RMK AO2 T03290236
KTOC 181835Z AUTO 00000KT 10SM CLR 32/23 A2998 RMK AO2 T03220233
KTOC 181815Z AUTO 12004KT 10SM CLR 33/24 A2999 RMK AO2 T03270235
KTOC 181755Z AUTO 00000KT 10SM CLR 32/23 A2999 RMK AO2 T03180234 10321 20248
KTOC 181735Z AUTO 13004KT 10SM CLR 32/24 A3000 RMK AO2 T03150237
KTOC 181715Z AUTO 00000KT 10SM SCT028 31/23 A3001 RMK AO2 T03130233
KTOC 181655Z AUTO 00000KT 10SM CLR 31/23 A3001 RMK AO2 T03110231
KTOC 181635Z AUTO 09004KT 10SM CLR 31/23 A3002 RMK AO2 T03080233
KTOC 181615Z AUTO 09003KT 10SM CLR 30/23 A3002 RMK AO2 T03000229
KTOC 181555Z AUTO 07003KT 10SM CLR 31/23 A3002 RMK AO2 T03060229
KTOC 181535Z AUTO 10004KT 10SM CLR 30/22 A3002 RMK AO2 T03040224
KTOC 181515Z AUTO 00000KT 10SM CLR 30/23 A3002 RMK AO2 T02990227
KTOC 181455Z AUTO 00000KT 10SM CLR 29/22 A3002 RMK AO2 T02910223
KTOC 181435Z AUTO 00000KT 10SM SCT120 29/23 A3002 RMK AO2 T02890229
KTOC 181415Z AUTO 04003KT 10SM SCT120 28/23 A3002 RMK AO2 T02780231
KTOC 181355Z AUTO 06003KT 10SM SCT120 28/23 A3002 RMK AO2 T02780230
KTOC 181335Z AUTO 00000KT 10SM BKN120 27/23 A3002 RMK AO2 T02690230
KTOC 181315Z AUTO 00000KT 10SM BKN120 27/23 A3002 RMK AO2 T02650228
KTOC 181255Z AUTO 00000KT 10SM SCT120 26/22 A3002 RMK AO2 T02610224
KTOC 181235Z AUTO 00000KT 10SM SCT120 26/22 A3001 RMK AO2 T02560220
KTOC 181215Z AUTO 00000KT 10SM CLR 26/22 A3000 RMK AO2 T02550223
KTOC 181155Z AUTO 00000KT 10SM CLR 25/23 A2999 RMK AO2 T02480225 10248 20226
KTOC 181135Z AUTO 00000KT 10SM CLR 24/23 A2999 RMK AO2 T02380225
KTOC 181115Z AUTO 00000KT 10SM CLR 23/22 A2999 RMK AO2 T02320222
KTOC 181055Z AUTO 00000KT 7SM CLR 23/22 A2998 RMK AO2 T02270219
KTOC 181035Z AUTO 00000KT 10SM CLR 23/22 A2997 RMK AO2 T02310216
KTOC 181015Z AUTO 00000KT 10SM CLR 24/22 A2996 RMK AO2 T02350219
KTOC 180955Z AUTO 00000KT 10SM CLR 23/22 A2995 RMK AO2 T02280218
KTOC 180935Z AUTO 00000KT 10SM CLR 23/22 A2995 RMK AO2 T02290218
KTOC 180915Z AUTO 00000KT 10SM CLR 23/22 A2995 RMK AO2 T02320219
KTOC 180855Z AUTO 00000KT 10SM CLR 24/22 A2994 RMK AO2 T02350220
KTOC 180835Z AUTO 00000KT 10SM CLR 24/22 A2994 RMK AO2 T02360221
KTOC 180815Z AUTO 00000KT 10SM CLR 24/22 A2994 RMK AO2 T02390223
KTOC 180755Z AUTO 00000KT 10SM CLR 25/22 A2994 RMK AO2 T02450221
KTOC 180735Z AUTO 00000KT 10SM CLR 25/22 A2994 RMK AO2 T02450223
KTOC 180715Z AUTO 35004KT 10SM CLR 24/23 A2994 RMK AO2 T02420225
KTOC 180655Z AUTO 00000KT 10SM CLR 24/22 A2995 RMK AO2 T02400224
KTOC 180635Z AUTO 00000KT 10SM CLR 25/23 A2996 RMK AO2 T02450227
KTOC 180615Z AUTO 00000KT 7SM CLR 24/23 A2996 RMK AO2 T02400227
KTOC 180555Z AUTO 00000KT 10SM CLR 25/23 A2997 RMK AO2 T02450231 10302 20241 403570229
KTOC 180535Z AUTO 00000KT 10SM CLR 25/23 A2998 RMK AO2 T02470231
KTOC 180515Z AUTO 00000KT 10SM CLR 25/23 A2998 RMK AO2 T02500231
KTOC 180455Z AUTO 00000KT 10SM CLR 26/23 A2998 RMK AO2 T02570229
KTOC 180435Z AUTO 00000KT 10SM CLR 25/24 A2999 RMK AO2 T02490236
KTOC 180415Z AUTO 00000KT 10SM CLR 25/24 A2998 RMK AO2 T02530239
KTOC 180355Z AUTO 00000KT 10SM CLR 25/24 A2997 RMK AO2 T02530240
KTOC 180335Z AUTO 00000KT 10SM CLR 26/24 A2998 RMK AO2 T02570240
KTOC 180315Z AUTO 00000KT 10SM CLR 26/24 A2998 RMK AO2 T02590241
KTOC 180255Z AUTO 00000KT 10SM CLR 26/24 A2998 RMK AO2 T02600243
KTOC 180235Z AUTO 09003KT 10SM CLR 28/24 A2998 RMK AO2 T02760236
KTOC 180215Z AUTO 00000KT 10SM CLR 28/23 A2998 RMK AO2 T02820234
KTOC 180155Z AUTO 00000KT 10SM CLR 29/23 A2997 RMK AO2 T02870232
KTOC 180135Z AUTO 00000KT 10SM SCT120 29/23 A2996 RMK AO2 T02870232
KTOC 180115Z AUTO 00000KT 10SM SCT120 29/23 A2996 RMK AO2 T02900231
KTOC 180055Z AUTO 00000KT 10SM SCT085 BKN120 29/23 A2996 RMK AO2 T02900231
KTOC 180035Z AUTO 26005KT 10SM SCT085 SCT110 30/23 A2996 RMK AO2 T02960230
KTOC 180015Z AUTO 26007KT 10SM SCT085 BKN110 30/23 A2995 RMK AO2 T02980228
KTOC 172355Z AUTO 28004KT 10SM SCT048 BKN110 30/23 A2995 RMK AO2 T03030225 10357 20303
KTOC 172335Z AUTO 27008G15KT 10SM SCT048 SCT060 BKN080 31/23 A2994 RMK AO2 T03070229
KTOC 172315Z AUTO 26008KT 10SM SCT060 SCT080 BKN120 32/25 A2994 RMK AO2 T03200250
KTOC 172255Z AUTO 24006KT 10SM CLR 32/25 A2994 RMK AO2 T03200250
KTOC 172235Z AUTO 24004KT 10SM CLR 33/24 A2993 RMK AO2 T03310244
KTOC 172215Z AUTO 25007KT 10SM CLR 35/24 A2993 RMK AO2 T03450240
KTOC 172155Z AUTO 24007KT 10SM CLR 35/24 A2993 RMK AO2 T03510239
KTOC 172135Z AUTO 26008KT 10SM CLR 35/24 A2993 RMK AO2 T03450239
KTOC 172115Z AUTO 24007KT 10SM CLR 35/24 A2993 RMK AO2 T03500242
KTOC 172055Z AUTO 28006KT 10SM CLR 36/23 A2993 RMK AO2 T03570233
KTOC 172035Z AUTO 25008KT 10SM SCT039 SCT048 SCT055 35/24 A2993 RMK AO2 T03520241
KTOC 172015Z AUTO 26005G08KT 10SM SCT039 SCT050 35/23 A2994 RMK AO2 T03500232
KTOC 171955Z AUTO 27007KT 240V300 10SM SCT041 34/24 A2994 RMK AO2 T03430237
KTOC 171935Z AUTO 24007KT 10SM CLR 35/23 A2994 RMK AO2 T03470233
KTOC 171915Z AUTO 24008KT 10SM CLR 35/23 A2996 RMK AO2 T03460227
KTOC 171855Z AUTO 25008KT 10SM CLR 35/24 A2997 RMK AO2 T03450237
KTOC 171835Z AUTO 24010KT 10SM SCT037 SCT050 SCT080 34/24 A2998 RMK AO2 T03410243
KTOC 171815Z AUTO 25005KT 10SM SCT039 SCT055 SCT080 34/24 A2999 RMK AO2 T03420235
KTOC 171755Z AUTO 28004KT 10SM CLR 34/23 A2999 RMK AO2 T03440226 10345 20235
KTOC 171735Z AUTO 27004KT 10SM CLR 34/24 A3000 RMK AO2 T03410235
KTOC 171715Z AUTO 27005KT 10SM CLR 34/24 A3000 RMK AO2 T03370236
KTOC 171655Z AUTO 26004KT 10SM CLR 33/23 A3001 RMK AO2 T03330234
KTOC 171635Z AUTO 26005KT 10SM CLR 33/24 A3001 RMK AO2 T03260240
KTOC 171615Z AUTO 27005KT 10SM CLR 32/24 A3002 RMK AO2 T03240239
KTOC 171555Z AUTO 33005KT 10SM CLR 32/24 A3003 RMK AO2 T03240235